createdAt,value
2022-10-22T00:01:03.378Z,17.00
2022-10-22T00:03:31.439Z,17.48
2022-10-22T00:05:59.377Z,26.63
2022-10-22T00:08:27.264Z,18.83
2022-10-22T00:10:55.081Z,17.98
2022-10-22T00:13:24.687Z,24.27
2022-10-22T00:15:52.539Z,19.17
2022-10-22T00:18:20.356Z,25.10
2022-10-22T00:20:48.154Z,18.45
2022-10-22T00:23:15.969Z,19.50
2022-10-22T00:25:43.831Z,21.80
2022-10-22T00:28:12.589Z,22.98
2022-10-22T00:30:42.119Z,17.60
2022-10-22T00:33:10.023Z,18.77
2022-10-22T00:35:37.891Z,17.58
2022-10-22T00:38:06.191Z,19.40
2022-10-22T00:40:34.029Z,22.33
2022-10-22T00:43:01.894Z,20.77
2022-10-22T00:45:30.132Z,22.27
2022-10-22T00:48:02.686Z,20.42
2022-10-22T00:50:35.415Z,19.77
2022-10-22T00:53:05.406Z,20.60
2022-10-22T00:55:34.205Z,19.15
2022-10-22T00:58:05.382Z,19.45
2022-10-22T01:00:33.383Z,17.15
2022-10-22T01:03:02.813Z,16.25
2022-10-22T01:05:40.401Z,22.33
2022-10-22T01:10:55.504Z,21.50
2022-10-22T01:13:32.995Z,21.02
2022-10-22T01:16:09.710Z,21.95
2022-10-22T01:18:48.879Z,20.30
2022-10-22T01:21:26.244Z,18.88
2022-10-22T01:24:10.058Z,20.85
2022-10-22T01:26:53.095Z,25.95
2022-10-22T01:29:34.659Z,19.65
2022-10-22T01:32:06.220Z,23.90
2022-10-22T01:34:35.507Z,22.05
2022-10-22T01:37:04.623Z,22.30
2022-10-22T01:39:33.288Z,20.20
2022-10-22T01:42:01.104Z,23.58
2022-10-22T01:44:32.054Z,22.23
2022-10-22T01:47:13.984Z,19.27
2022-10-22T01:50:03.823Z,20.13
2022-10-22T01:52:47.656Z,22.45
2022-10-22T01:55:26.321Z,17.73
2022-10-22T01:58:09.102Z,22.10
2022-10-22T02:00:41.158Z,21.07
2022-10-22T02:03:15.643Z,21.67
2022-10-22T02:05:48.575Z,21.85
2022-10-22T02:08:20.335Z,22.73
2022-10-22T02:10:49.637Z,21.42
2022-10-22T02:13:22.268Z,20.83
2022-10-22T02:15:53.532Z,21.35
2022-10-22T02:18:24.799Z,17.88
2022-10-22T02:20:54.435Z,19.42
2022-10-22T02:23:23.217Z,20.33
2022-10-22T02:25:58.481Z,23.48
2022-10-22T02:28:34.961Z,18.83
2022-10-22T02:31:09.343Z,18.50
2022-10-22T02:33:43.418Z,24.50
2022-10-22T02:36:12.678Z,22.58
2022-10-22T02:38:43.170Z,16.67
2022-10-22T02:41:11.523Z,17.92
2022-10-22T02:43:43.819Z,20.63
2022-10-22T02:46:13.369Z,20.65
2022-10-22T02:48:41.250Z,19.95
2022-10-22T02:51:09.070Z,24.50
2022-10-22T02:53:36.932Z,20.27
2022-10-22T02:56:04.898Z,18.10
2022-10-22T02:58:32.755Z,18.67
2022-10-22T03:01:00.636Z,19.05
2022-10-22T03:03:29.852Z,17.17
2022-10-22T03:05:57.671Z,20.88
2022-10-22T03:08:25.541Z,22.25
2022-10-22T03:10:53.405Z,19.55
2022-10-22T03:13:21.306Z,20.48
2022-10-22T03:15:50.343Z,20.42
2022-10-22T03:18:18.542Z,23.42
2022-10-22T03:20:47.712Z,21.17
2022-10-22T03:23:17.990Z,25.63
2022-10-22T03:25:48.136Z,14.93
2022-10-22T03:28:18.304Z,19.88
2022-10-22T03:30:46.150Z,17.48
2022-10-22T03:33:14.021Z,23.02
2022-10-22T03:35:46.195Z,19.38
2022-10-22T03:38:16.048Z,19.15
2022-10-22T03:40:45.230Z,16.48
2022-10-22T03:43:13.563Z,21.83
2022-10-22T03:45:41.534Z,19.58
2022-10-22T03:48:09.425Z,16.38
2022-10-22T03:50:37.369Z,18.92
2022-10-22T03:53:07.120Z,16.95
2022-10-22T03:55:36.289Z,19.83
2022-10-22T03:58:04.123Z,18.98
2022-10-22T04:00:31.956Z,19.90
2022-10-22T04:02:59.784Z,19.05
2022-10-22T04:05:27.656Z,19.90
2022-10-22T04:07:55.506Z,16.10
2022-10-22T04:10:23.300Z,17.98
2022-10-22T04:12:52.552Z,23.10
2022-10-22T04:15:20.389Z,19.30
2022-10-22T04:17:48.270Z,16.88
2022-10-22T04:20:16.122Z,19.52
2022-10-22T04:22:43.938Z,21.58
2022-10-22T04:25:11.783Z,20.42
2022-10-22T04:27:39.876Z,19.05
2022-10-22T04:30:10.713Z,21.27
2022-10-22T04:32:38.581Z,22.63
2022-10-22T04:35:07.030Z,20.35
2022-10-22T04:37:35.303Z,18.13
2022-10-22T04:40:03.139Z,16.95
2022-10-22T04:42:31.009Z,21.45
2022-10-22T04:44:58.844Z,19.52
2022-10-22T04:47:28.093Z,17.48
2022-10-22T04:49:55.938Z,20.17
2022-10-22T04:52:23.783Z,19.23
2022-10-22T04:54:51.627Z,20.02
2022-10-22T04:57:19.433Z,19.65
2022-10-22T04:59:47.313Z,19.38
2022-10-22T05:02:15.132Z,21.02
2022-10-22T05:04:46.262Z,18.08
2022-10-22T05:07:14.120Z,18.20
2022-10-22T05:09:42.213Z,23.20
2022-10-22T05:12:10.032Z,23.25
2022-10-22T05:14:40.292Z,22.45
2022-10-22T05:17:10.523Z,19.73
2022-10-22T05:19:38.341Z,19.77
2022-10-22T05:22:07.568Z,17.88
2022-10-22T05:24:37.123Z,18.13
2022-10-22T05:27:05.796Z,18.63
2022-10-22T05:29:33.899Z,17.35
2022-10-22T05:32:01.831Z,18.33
2022-10-22T05:34:29.687Z,17.92
2022-10-22T05:36:57.587Z,19.20
2022-10-22T05:39:26.926Z,24.50
2022-10-22T05:41:54.929Z,17.73
2022-10-22T05:44:22.802Z,17.17
2022-10-22T05:46:50.755Z,18.10
2022-10-22T05:49:18.643Z,22.60
2022-10-22T05:51:46.814Z,14.35
2022-10-22T05:54:18.483Z,18.27
2022-10-22T05:56:47.864Z,17.85
2022-10-22T05:59:15.800Z,15.50
2022-10-22T06:01:43.663Z,17.20
2022-10-22T06:04:12.917Z,18.80
2022-10-22T06:06:45.310Z,19.48
2022-10-22T06:09:18.424Z,19.67
2022-10-22T06:11:48.832Z,16.42
2022-10-22T06:14:17.491Z,20.25
2022-10-22T06:16:45.451Z,18.48
2022-10-22T06:19:15.035Z,19.98
2022-10-22T06:21:43.167Z,18.08
2022-10-22T06:24:12.209Z,16.55
2022-10-22T06:26:40.196Z,20.23
2022-10-22T06:29:09.772Z,21.13
2022-10-22T06:31:37.929Z,18.98
2022-10-22T06:34:06.678Z,19.88
2022-10-22T06:36:34.947Z,24.02
2022-10-22T06:39:02.958Z,21.92
2022-10-22T06:41:30.835Z,19.45
2022-10-22T06:44:00.051Z,21.25
2022-10-22T06:46:29.976Z,22.13
2022-10-22T06:48:59.811Z,21.70
2022-10-22T06:51:29.028Z,22.60
2022-10-22T06:53:58.104Z,19.77
2022-10-22T06:56:27.930Z,22.67
2022-10-22T06:58:57.529Z,20.13
2022-10-22T07:01:27.371Z,23.05
2022-10-22T07:03:56.647Z,20.27
2022-10-22T07:06:25.803Z,25.00
2022-10-22T07:08:55.243Z,21.17
2022-10-22T07:11:24.961Z,18.13
2022-10-22T07:13:55.287Z,19.13
2022-10-22T07:16:28.040Z,19.42
2022-10-22T07:19:01.670Z,25.23
2022-10-22T07:21:29.710Z,22.35
2022-10-22T07:23:57.894Z,20.48
2022-10-22T07:26:28.159Z,22.73
2022-10-22T07:28:56.201Z,20.20
2022-10-22T07:31:24.588Z,20.38
2022-10-22T07:33:52.655Z,24.70
2022-10-22T07:36:21.943Z,19.52
2022-10-22T07:38:54.310Z,20.02
2022-10-22T07:41:23.611Z,25.70
2022-10-22T07:43:51.888Z,18.20
2022-10-22T07:46:20.016Z,23.63
2022-10-22T07:48:47.903Z,19.42
2022-10-22T07:51:16.289Z,21.48
2022-10-22T07:53:45.536Z,17.60
2022-10-22T07:56:13.927Z,19.15
2022-10-22T07:58:42.208Z,21.15
2022-10-22T08:01:10.490Z,20.13
2022-10-22T08:03:38.424Z,21.58
2022-10-22T08:06:06.939Z,20.27
2022-10-22T08:08:34.868Z,19.60
2022-10-22T08:11:04.219Z,18.83
2022-10-22T08:13:32.372Z,16.45
2022-10-22T08:16:01.755Z,17.15
2022-10-22T08:18:30.349Z,19.60
2022-10-22T08:20:58.526Z,19.25
2022-10-22T08:23:28.674Z,18.48
2022-10-22T08:25:57.923Z,17.42
2022-10-22T08:28:28.721Z,18.95
2022-10-22T08:30:56.661Z,20.00
2022-10-22T08:33:24.518Z,18.60
2022-10-22T08:35:53.083Z,18.70
2022-10-22T08:38:21.604Z,17.50
2022-10-22T08:40:52.674Z,18.27
2022-10-22T08:43:47.412Z,18.50
2022-10-22T08:46:33.992Z,20.17
2022-10-22T08:49:04.425Z,18.13
2022-10-22T08:51:35.452Z,23.05
2022-10-22T08:54:24.311Z,17.88
2022-10-22T08:57:02.547Z,17.25
2022-10-22T08:59:38.769Z,20.48
2022-10-22T09:02:23.855Z,19.25
2022-10-22T09:04:58.204Z,18.10
2022-10-22T09:07:26.308Z,18.92
2022-10-22T09:09:58.355Z,18.45
2022-10-22T09:12:28.151Z,19.17
2022-10-22T09:14:57.401Z,19.17
2022-10-22T09:17:35.315Z,17.90
2022-10-22T09:20:12.932Z,19.52
2022-10-22T09:22:47.828Z,16.90
2022-10-22T09:25:21.332Z,16.77
2022-10-22T09:27:50.642Z,18.55
2022-10-22T09:30:21.975Z,19.00
2022-10-22T09:32:53.093Z,18.67
2022-10-22T09:35:25.164Z,18.90
2022-10-22T09:37:55.396Z,22.98
2022-10-22T09:40:24.722Z,17.10
2022-10-22T09:42:52.650Z,21.30
2022-10-22T09:45:25.668Z,19.70
2022-10-22T09:48:12.746Z,16.98
2022-10-22T09:50:45.259Z,16.92
2022-10-22T09:53:19.018Z,18.57
2022-10-22T09:55:52.727Z,15.00
2022-10-22T09:58:21.021Z,17.92
2022-10-22T10:00:54.613Z,17.67
2022-10-22T10:03:25.404Z,16.42
2022-10-22T10:05:57.351Z,17.13
2022-10-22T10:08:27.175Z,19.73
2022-10-22T10:11:00.489Z,17.45
2022-10-22T10:16:14.694Z,17.77
2022-10-22T10:18:57.327Z,20.40
2022-10-22T10:21:36.028Z,19.13
2022-10-22T10:24:13.043Z,16.55
2022-10-22T10:26:47.660Z,17.80
2022-10-22T10:29:29.862Z,14.02
2022-10-22T10:32:11.140Z,19.77
2022-10-22T10:34:47.327Z,20.42
2022-10-22T10:37:22.915Z,19.92
2022-10-22T10:40:11.280Z,18.55
2022-10-22T10:42:45.054Z,19.40
2022-10-22T10:45:21.258Z,19.25
2022-10-22T10:48:24.966Z,22.65
2022-10-22T10:51:04.579Z,19.88
2022-10-22T10:53:47.682Z,18.88
2022-10-22T10:56:29.711Z,22.25
2022-10-22T10:59:08.467Z,22.08
2022-10-22T11:01:41.652Z,20.55
2022-10-22T11:04:42.966Z,19.60
2022-10-22T11:07:23.270Z,19.95
2022-10-22T11:10:09.883Z,19.75
2022-10-22T11:12:42.851Z,23.73
2022-10-22T11:17:48.517Z,19.98
2022-10-22T11:20:21.244Z,18.92
2022-10-22T11:23:17.445Z,19.88
2022-10-22T11:25:45.576Z,24.50
2022-10-22T11:28:17.965Z,18.88
2022-10-22T11:30:50.671Z,17.20
2022-10-22T11:33:22.631Z,16.23
2022-10-22T11:35:53.809Z,21.75
2022-10-22T11:38:26.266Z,21.42
2022-10-22T11:40:59.934Z,16.77
2022-10-22T11:43:30.646Z,16.70
2022-10-22T11:46:03.749Z,17.65
2022-10-22T11:48:38.097Z,17.10
2022-10-22T11:51:34.075Z,19.48
2022-10-22T11:54:04.600Z,17.42
2022-10-22T11:56:38.470Z,15.57
2022-10-22T11:59:30.072Z,15.00
2022-10-22T12:01:57.932Z,17.08
2022-10-22T12:04:41.346Z,13.93
2022-10-22T12:07:34.956Z,17.30
2022-10-22T12:10:14.968Z,14.70
2022-10-22T12:12:45.482Z,11.47
2022-10-22T12:15:25.288Z,13.18
2022-10-22T12:18:00.434Z,10.25
2022-10-22T12:20:29.533Z,12.80
2022-10-22T12:22:59.885Z,12.20
2022-10-22T12:25:35.739Z,14.95
2022-10-22T12:28:03.847Z,9.57
2022-10-22T12:30:34.732Z,9.57
2022-10-22T12:33:04.951Z,10.70
2022-10-22T12:35:35.628Z,9.20
2022-10-22T12:38:13.894Z,6.15
2022-10-22T12:40:45.966Z,8.77
2022-10-22T12:43:18.614Z,7.93
2022-10-22T12:45:48.507Z,8.45
2022-10-22T12:48:19.800Z,10.30
2022-10-22T12:50:50.582Z,7.25
2022-10-22T12:53:23.532Z,10.27
2022-10-22T12:55:53.412Z,10.85
2022-10-22T12:58:26.720Z,7.18
2022-10-22T13:03:29.454Z,7.32
2022-10-22T13:05:57.462Z,6.85
2022-10-22T13:08:29.144Z,5.38
2022-10-22T13:10:57.028Z,7.95
2022-10-22T13:13:35.435Z,5.90
2022-10-22T13:16:18.443Z,6.50
2022-10-22T13:18:47.814Z,3.95
2022-10-22T13:21:26.359Z,7.90
2022-10-22T13:23:58.560Z,11.13
2022-10-22T13:26:33.145Z,4.22
2022-10-22T13:29:02.354Z,6.75
2022-10-22T13:31:33.559Z,5.25
2022-10-22T13:34:09.786Z,5.53
2022-10-22T13:36:39.907Z,10.35
2022-10-22T13:39:18.117Z,5.82
2022-10-22T13:41:45.995Z,8.20
2022-10-22T13:44:13.820Z,8.23
2022-10-22T13:46:42.906Z,6.85
2022-10-22T13:49:16.291Z,7.75
2022-10-22T13:51:44.642Z,5.10
2022-10-22T13:54:17.867Z,4.43
2022-10-22T13:59:14.202Z,6.32
2022-10-22T14:01:43.036Z,6.05
2022-10-22T14:04:14.759Z,5.80
2022-10-22T14:06:42.589Z,10.85
2022-10-22T14:09:16.659Z,6.85
2022-10-22T14:11:44.554Z,10.68
2022-10-22T14:14:14.298Z,10.20
2022-10-22T14:16:42.432Z,10.48
2022-10-22T14:19:15.470Z,7.15
2022-10-22T14:21:43.387Z,6.97
2022-10-22T14:24:13.232Z,8.95
2022-10-22T14:26:42.960Z,5.72
2022-10-22T14:29:11.721Z,6.72
2022-10-22T14:36:43.564Z,6.57
2022-10-22T14:39:11.571Z,7.78
2022-10-22T14:41:39.633Z,7.47
2022-10-22T14:44:12.551Z,6.28
2022-10-22T14:46:42.588Z,10.05
2022-10-22T14:49:10.502Z,7.65
2022-10-22T14:51:38.327Z,12.68
2022-10-22T14:54:06.182Z,11.55
2022-10-22T14:56:34.043Z,7.43
2022-10-22T14:59:01.965Z,6.18
2022-10-22T15:01:31.254Z,9.95
2022-10-22T15:03:59.058Z,11.10
2022-10-22T15:06:26.887Z,16.90
2022-10-22T15:08:54.766Z,25.77
2022-10-22T15:11:22.850Z,13.80
2022-10-22T15:13:50.678Z,13.88
2022-10-22T15:16:19.439Z,12.95
2022-10-22T15:18:48.597Z,7.40
2022-10-22T15:21:19.440Z,9.38
2022-10-22T15:23:47.661Z,8.48
2022-10-22T15:26:15.780Z,11.70
2022-10-22T15:28:44.147Z,15.07
2022-10-22T15:31:13.956Z,42.08
2022-10-22T15:33:42.930Z,29.23
2022-10-22T15:36:14.299Z,31.92
2022-10-22T15:38:42.164Z,35.55
2022-10-22T15:41:12.393Z,25.45
2022-10-22T15:43:40.317Z,40.00
2022-10-22T15:46:13.909Z,24.40
2022-10-22T15:48:42.269Z,16.90
2022-10-22T15:51:13.666Z,34.72
2022-10-22T15:53:42.293Z,37.13
2022-10-22T15:56:11.666Z,20.45
2022-10-22T15:58:39.485Z,15.02
2022-10-22T16:01:08.794Z,16.92
2022-10-22T16:03:37.000Z,14.75
2022-10-22T16:06:05.419Z,15.82
2022-10-22T16:08:35.272Z,16.95
2022-10-22T16:11:03.299Z,13.75
2022-10-22T16:13:31.354Z,15.73
2022-10-22T16:15:59.165Z,15.80
2022-10-22T16:18:27.047Z,18.63
2022-10-22T16:20:54.900Z,23.67
2022-10-22T16:23:22.739Z,15.82
2022-10-22T16:25:51.897Z,14.02
2022-10-22T16:28:19.744Z,13.05
2022-10-22T16:30:47.578Z,10.90
2022-10-22T16:33:15.459Z,10.05
2022-10-22T16:35:43.533Z,13.00
2022-10-22T16:38:12.524Z,7.70
2022-10-22T16:40:40.356Z,16.02
2022-10-22T16:43:09.551Z,11.85
2022-10-22T16:45:37.446Z,8.60
2022-10-22T16:48:05.646Z,8.35
2022-10-22T16:50:33.499Z,7.72
2022-10-22T16:53:01.305Z,11.02
2022-10-22T16:55:29.142Z,10.88
2022-10-22T16:57:57.083Z,15.07
2022-10-22T17:00:26.300Z,13.32
2022-10-22T17:02:54.297Z,9.18
2022-10-22T17:05:22.766Z,9.30
2022-10-22T17:07:51.492Z,10.23
2022-10-22T17:10:20.755Z,8.75
2022-10-22T17:12:49.610Z,9.15
2022-10-22T17:15:17.544Z,16.27
2022-10-22T17:17:50.863Z,10.45
2022-10-22T17:22:49.439Z,13.77
2022-10-22T17:25:21.931Z,16.45
2022-10-22T17:27:50.170Z,9.90
2022-10-22T17:30:23.473Z,9.85
2022-10-22T17:32:55.853Z,14.07
2022-10-22T17:35:23.691Z,15.90
2022-10-22T17:37:51.591Z,11.43
2022-10-22T17:40:19.550Z,14.55
2022-10-22T17:42:49.246Z,13.98
2022-10-22T17:45:17.281Z,18.35
2022-10-22T17:47:45.117Z,13.40
2022-10-22T17:50:14.400Z,8.88
2022-10-22T17:52:42.897Z,12.10
2022-10-22T17:55:13.146Z,10.90
2022-10-22T17:57:41.014Z,8.55
2022-10-22T18:00:10.243Z,8.95
2022-10-22T18:02:38.104Z,17.00
2022-10-22T18:05:06.680Z,12.32
2022-10-22T18:07:35.899Z,8.70
2022-10-22T18:10:03.989Z,10.52
2022-10-22T18:12:31.776Z,9.75
2022-10-22T18:14:59.660Z,12.77
2022-10-22T18:17:27.581Z,16.95
2022-10-22T18:19:55.454Z,13.60
2022-10-22T18:22:23.330Z,13.18
2022-10-22T18:24:53.025Z,13.73
2022-10-22T18:27:20.872Z,16.25
2022-10-22T18:29:50.415Z,13.93
2022-10-22T18:32:18.272Z,12.98
2022-10-22T18:34:46.180Z,10.27
2022-10-22T18:37:13.987Z,9.77
2022-10-22T18:39:41.813Z,9.48
2022-10-22T18:42:11.075Z,6.88
2022-10-22T18:44:38.978Z,5.78
2022-10-22T18:47:08.610Z,11.27
2022-10-22T18:49:36.415Z,8.57
2022-10-22T18:52:04.654Z,12.55
2022-10-22T18:54:32.493Z,7.43
2022-10-22T18:57:02.841Z,14.15
2022-10-22T18:59:32.640Z,11.30
2022-10-22T19:02:00.520Z,9.10
2022-10-22T19:04:33.232Z,8.38
2022-10-22T19:07:01.249Z,9.93
2022-10-22T19:09:29.135Z,10.68
2022-10-22T19:11:57.037Z,13.68
2022-10-22T19:14:25.055Z,14.18
2022-10-22T19:16:54.295Z,11.30
2022-10-22T19:19:22.629Z,10.07
2022-10-22T19:21:50.758Z,10.00
2022-10-22T19:24:20.774Z,11.38
2022-10-22T19:26:49.625Z,7.18
2022-10-22T19:29:19.357Z,11.00
2022-10-22T19:31:47.596Z,12.18
2022-10-22T19:34:16.809Z,11.80
2022-10-22T19:36:44.635Z,9.20
2022-10-22T19:39:16.226Z,9.57
2022-10-22T19:41:44.761Z,7.95
2022-10-22T19:44:12.631Z,7.32
2022-10-22T19:46:40.462Z,8.32
2022-10-22T19:49:08.334Z,9.27
2022-10-22T19:51:37.857Z,10.50
2022-10-22T19:54:08.871Z,10.85
2022-10-22T19:56:37.669Z,9.07
2022-10-22T19:59:06.529Z,7.88
2022-10-22T20:01:34.687Z,6.72
2022-10-22T20:04:02.580Z,9.50
2022-10-22T20:06:30.950Z,5.90
2022-10-22T20:09:00.448Z,8.65
2022-10-22T20:11:30.074Z,7.88
2022-10-22T20:13:58.630Z,5.20
2022-10-22T20:16:29.937Z,7.40
2022-10-22T20:19:01.052Z,7.45
2022-10-22T20:21:28.880Z,7.60
2022-10-22T20:23:57.418Z,10.77
2022-10-22T20:26:28.243Z,8.27
2022-10-22T20:28:56.618Z,7.80
2022-10-22T20:31:27.828Z,7.72
2022-10-22T20:33:57.471Z,8.10
2022-10-22T20:36:26.420Z,7.55
2022-10-22T20:38:54.268Z,10.40
2022-10-22T20:41:23.869Z,10.02
2022-10-22T20:43:53.532Z,7.85
2022-10-22T20:46:23.991Z,5.88
2022-10-22T20:48:52.575Z,8.35
2022-10-22T20:51:21.031Z,9.50
2022-10-22T20:53:49.013Z,4.80
2022-10-22T20:56:17.542Z,7.22
2022-10-22T20:58:48.839Z,7.82
2022-10-22T21:01:21.793Z,3.60
2022-10-22T21:03:49.965Z,10.23
2022-10-22T21:06:17.903Z,5.90
2022-10-22T21:08:45.873Z,5.88
2022-10-22T21:11:13.675Z,7.82
2022-10-22T21:13:41.553Z,5.85
2022-10-22T21:16:10.716Z,4.38
2022-10-22T21:18:40.002Z,5.47
2022-10-22T21:21:08.616Z,7.00
2022-10-22T21:23:37.378Z,7.72
2022-10-22T21:26:05.816Z,9.77
2022-10-22T21:28:35.716Z,7.22
2022-10-22T21:31:04.690Z,6.32
2022-10-22T21:33:32.811Z,8.05
2022-10-22T21:36:02.017Z,9.95
2022-10-22T21:38:29.852Z,10.38
2022-10-22T21:40:57.675Z,6.97
2022-10-22T21:43:25.630Z,9.23
2022-10-22T21:46:05.411Z,8.57
2022-10-22T21:48:35.952Z,10.70
2022-10-22T21:51:09.156Z,9.88
2022-10-22T21:53:37.180Z,13.90
2022-10-22T21:56:05.934Z,7.65
2022-10-22T21:58:35.192Z,8.70
2022-10-22T22:01:03.094Z,7.45
2022-10-22T22:03:31.049Z,8.63
2022-10-22T22:05:59.776Z,6.20
2022-10-22T22:08:29.213Z,7.50
2022-10-22T22:11:03.092Z,13.52
2022-10-22T22:13:33.998Z,6.50
2022-10-22T22:16:02.878Z,10.40
2022-10-22T22:18:31.185Z,8.95
2022-10-22T22:20:59.734Z,12.57
2022-10-22T22:23:28.966Z,6.75
2022-10-22T22:25:59.656Z,7.07
2022-10-22T22:28:27.624Z,4.68
2022-10-22T22:30:55.518Z,7.05
2022-10-22T22:33:23.398Z,8.52
2022-10-22T22:35:51.432Z,12.90
2022-10-22T22:38:19.352Z,7.88
2022-10-22T22:40:48.563Z,7.90
2022-10-22T22:43:16.415Z,11.02
2022-10-22T22:45:44.359Z,8.13
2022-10-22T22:48:12.217Z,7.03
2022-10-22T22:50:40.048Z,7.35
2022-10-22T22:53:08.008Z,10.18
2022-10-22T22:55:36.140Z,6.03
2022-10-22T22:58:05.386Z,7.20
2022-10-22T23:00:33.267Z,10.65
2022-10-22T23:03:01.167Z,12.13
2022-10-22T23:05:28.985Z,11.52
2022-10-22T23:07:57.298Z,12.82
2022-10-22T23:10:25.087Z,5.10
2022-10-22T23:12:52.928Z,8.57
2022-10-22T23:15:22.088Z,13.27
2022-10-22T23:17:49.891Z,6.22
2022-10-22T23:20:17.920Z,6.80
2022-10-22T23:22:45.782Z,9.82
2022-10-22T23:25:13.582Z,8.18
2022-10-22T23:27:41.635Z,11.40
2022-10-22T23:30:10.857Z,7.45
2022-10-22T23:32:40.119Z,7.72
2022-10-22T23:35:08.541Z,9.50
2022-10-22T23:37:36.331Z,13.13
2022-10-22T23:40:04.514Z,10.43
2022-10-22T23:42:32.383Z,10.68
2022-10-22T23:45:00.234Z,10.18
2022-10-22T23:47:28.188Z,6.60
2022-10-22T23:49:57.348Z,9.75
2022-10-22T23:52:25.275Z,8.93
2022-10-22T23:54:53.091Z,6.60
2022-10-22T23:57:20.933Z,10.18
2022-10-22T23:59:48.728Z,8.98
